Time;durP1;ratioP1;P1;durP2;ratioP2;P2;SDS_P1;SDS_P2;PMS_P1;PMS_P2;Temp;Humidity;BMP_temperature;BMP_pressure;BME280_temperature;BME280_humidity;BME280_pressure;Samples;Min_cycle;Max_cycle;Signal;HPM_P1;HPM_P2
2021/12/24 00:01:10;;;;;;;;;32.25;30.50;;;;;;;;4956103;28;46633;-81
2021/12/24 00:03:35;;;;;;;;;39.75;31.50;;;;;;;;4954602;28;45939;-81
2021/12/24 00:06:02;;;;;;;;;26.00;24.50;;;;;;;;4963398;28;45525;-81
2021/12/24 00:08:27;;;;;;;;;41.50;35.00;;;;;;;;4967688;28;45852;-81
2021/12/24 00:10:59;;;;;;;;;27.00;26.00;;;;;;;;4966857;28;47831;-81
2021/12/24 00:13:25;;;;;;;;;38.25;31.00;;;;;;;;4966198;28;45453;-80
2021/12/24 00:18:38;;;;;;;;;39.50;32.00;;;;;;;;4968427;28;45500;-80
2021/12/24 00:37:19;;;;;;;;;35.50;31.50;;;;;;;;4965693;28;45441;-82
2021/12/24 00:39:49;;;;;;;;;36.25;29.25;;;;;;;;4971952;28;45636;-82
2021/12/24 00:42:14;;;;;;;;;31.25;26.50;;;;;;;;4957368;28;45612;-80
2021/12/24 00:44:39;;;;;;;;;27.67;26.00;;;;;;;;4954280;28;45695;-81
2021/12/24 00:47:05;;;;;;;;;20.25;19.25;;;;;;;;4956111;28;45490;-80
2021/12/24 00:49:30;;;;;;;;;30.25;28.75;;;;;;;;4960915;28;45522;-81
2021/12/24 00:52:07;;;;;;;;;32.75;30.25;;;;;;;;4957580;28;45516;-82
2021/12/24 00:57:19;;;;;;;;;33.75;28.25;;;;;;;;4956315;28;45470;-81
2021/12/24 00:59:45;;;;;;;;;31.67;28.33;;;;;;;;4968486;28;45613;-80
2021/12/24 01:02:10;;;;;;;;;34.25;29.25;;;;;;;;4967078;28;47217;-80
2021/12/24 01:04:35;;;;;;;;;33.33;26.00;;;;;;;;4966351;28;46162;-81
2021/12/24 01:07:00;;;;;;;;;26.67;25.00;;;;;;;;4961619;28;45444;-81
2021/12/24 01:09:26;;;;;;;;;28.33;25.00;;;;;;;;4957165;28;45634;-81
2021/12/24 01:11:51;;;;;;;;;28.00;24.33;;;;;;;;4967596;28;46302;-81
2021/12/24 01:14:18;;;;;;;;;24.33;23.00;;;;;;;;4968077;28;45539;-81
2021/12/24 01:16:52;;;;;;;;;34.50;26.75;;;;;;;;4960469;28;45604;-81
2021/12/24 01:19:22;;;;;;;;;33.50;25.75;;;;;;;;4970027;28;45498;-81
2021/12/24 01:24:29;;;;;;;;;28.50;26.25;;;;;;;;4965649;28;45392;-81
2021/12/24 01:27:21;;;;;;;;;28.00;25.25;;;;;;;;4967454;28;45561;-81
2021/12/24 01:43:04;;;;;;;;;38.00;27.75;;;;;;;;4966942;28;45357;-81
2021/12/24 01:45:36;;;;;;;;;28.75;28.50;;;;;;;;4967283;28;45847;-81
2021/12/24 01:48:03;;;;;;;;;29.25;26.25;;;;;;;;4967765;28;45553;-80
2021/12/24 01:50:30;;;;;;;;;29.50;26.25;;;;;;;;4964928;28;45596;-82
2021/12/24 01:52:56;;;;;;;;;29.75;23.00;;;;;;;;4951462;28;48089;-80
2021/12/24 01:55:21;;;;;;;;;30.75;22.50;;;;;;;;4955833;28;47002;-81
2021/12/24 01:57:46;;;;;;;;;35.75;30.25;;;;;;;;4964768;28;45508;-81
2021/12/24 02:00:17;;;;;;;;;32.67;29.67;;;;;;;;4967150;28;45931;-81
2021/12/24 02:02:42;;;;;;;;;26.75;26.75;;;;;;;;4967309;28;45592;-81
2021/12/24 02:05:08;;;;;;;;;26.75;23.25;;;;;;;;4968226;28;45617;-81
2021/12/24 02:07:33;;;;;;;;;32.00;26.75;;;;;;;;4968122;28;45827;-81
2021/12/24 02:09:58;;;;;;;;;29.00;25.67;;;;;;;;4966999;28;45542;-81
2021/12/24 02:12:25;;;;;;;;;34.67;27.33;;;;;;;;4965804;28;45526;-81
2021/12/24 02:14:54;;;;;;;;;26.75;24.75;;;;;;;;4961264;28;45875;-81
2021/12/24 02:28:36;;;;;;;;;30.50;27.00;;;;;;;;4901742;28;45569;-82
2021/12/24 02:31:02;;;;;;;;;30.50;25.75;;;;;;;;4901968;28;45949;-81
2021/12/24 02:33:27;;;;;;;;;30.25;25.50;;;;;;;;4906914;28;46229;-81
2021/12/24 02:35:52;;;;;;;;;26.33;23.67;;;;;;;;4908270;28;45977;-81
2021/12/24 02:38:17;;;;;;;;;31.67;26.67;;;;;;;;4909229;28;45498;-81
2021/12/24 02:40:43;;;;;;;;;31.50;28.00;;;;;;;;4898900;28;45613;-81
2021/12/24 02:43:13;;;;;;;;;32.00;27.75;;;;;;;;4921008;28;48753;-81
2021/12/24 02:45:40;;;;;;;;;29.75;26.00;;;;;;;;4906004;28;45718;-81
2021/12/24 02:56:00;;;;;;;;;25.00;23.75;;;;;;;;4908117;28;46274;-81
2021/12/24 02:58:25;;;;;;;;;27.33;24.33;;;;;;;;4907353;28;45644;-80
2021/12/24 03:00:50;;;;;;;;;26.33;24.00;;;;;;;;4962719;28;45482;-80
2021/12/24 03:03:16;;;;;;;;;31.75;23.75;;;;;;;;4965716;28;45822;-80
2021/12/24 03:05:41;;;;;;;;;27.75;24.75;;;;;;;;4969528;28;45767;-79
2021/12/24 03:08:06;;;;;;;;;29.00;27.00;;;;;;;;4958410;28;45495;-80
2021/12/24 03:10:33;;;;;;;;;27.75;25.00;;;;;;;;4959103;28;45551;-81
2021/12/24 03:12:58;;;;;;;;;31.50;23.00;;;;;;;;4957760;28;45480;-82
2021/12/24 03:15:25;;;;;;;;;27.00;24.25;;;;;;;;4957917;28;45509;-80
2021/12/24 03:17:54;;;;;;;;;30.50;27.75;;;;;;;;4957320;28;45403;-82
2021/12/24 03:20:20;;;;;;;;;27.25;23.25;;;;;;;;4952946;28;45373;-82
2021/12/24 03:25:14;;;;;;;;;31.25;27.25;;;;;;;;4957376;28;45959;-81
2021/12/24 03:27:39;;;;;;;;;26.50;22.75;;;;;;;;4956812;28;45465;-81
2021/12/24 03:30:05;;;;;;;;;33.00;27.75;;;;;;;;4968411;28;45618;-81
2021/12/24 03:32:30;;;;;;;;;34.00;28.75;;;;;;;;4953791;28;45450;-82
2021/12/24 03:34:55;;;;;;;;;31.67;27.67;;;;;;;;4956429;28;45450;-81
2021/12/24 03:37:21;;;;;;;;;31.33;24.33;;;;;;;;4956856;28;45576;-81
2021/12/24 03:39:46;;;;;;;;;24.33;21.33;;;;;;;;4959204;28;45585;-81
2021/12/24 03:42:11;;;;;;;;;33.00;27.67;;;;;;;;4964258;28;47026;-82
2021/12/24 03:44:50;;;;;;;;;33.25;26.75;;;;;;;;4970677;28;45690;-81
2021/12/24 03:47:18;;;;;;;;;29.25;23.75;;;;;;;;4970055;28;45339;-81
2021/12/24 03:54:57;;;;;;;;;31.25;24.25;;;;;;;;4966617;28;46559;-81
2021/12/24 03:57:24;;;;;;;;;34.25;27.75;;;;;;;;4956743;28;45668;-81
2021/12/24 03:59:49;;;;;;;;;29.50;24.50;;;;;;;;4969820;28;45841;-81
2021/12/24 04:02:14;;;;;;;;;34.25;25.50;;;;;;;;4989993;28;45702;-81
2021/12/24 04:04:40;;;;;;;;;30.67;27.67;;;;;;;;4964929;28;45554;-81
2021/12/24 04:07:06;;;;;;;;;25.00;24.67;;;;;;;;4966820;28;45346;-81
2021/12/24 04:09:32;;;;;;;;;30.00;28.75;;;;;;;;4966354;28;47539;-81
2021/12/24 04:11:57;;;;;;;;;35.50;26.50;;;;;;;;4969870;28;46331;-81
2021/12/24 04:14:23;;;;;;;;;31.00;28.00;;;;;;;;4955818;28;45653;-81
2021/12/24 04:16:48;;;;;;;;;28.50;23.00;;;;;;;;4962952;28;46082;-81
2021/12/24 04:24:50;;;;;;;;;25.33;23.67;;;;;;;;4963093;28;45607;-81
2021/12/24 04:24:56;;;;;;;;;32.25;28.00;;;;;;;;4968869;28;45493;-81
2021/12/24 04:27:30;;;;;;;;;37.00;25.00;;;;;;;;4965622;28;45688;-81
2021/12/24 04:30:08;;;;;;;;;32.75;27.25;;;;;;;;4968060;28;45361;-81
2021/12/24 04:32:52;;;;;;;;;25.50;22.50;;;;;;;;4955416;28;46582;-81
2021/12/24 04:51:24;;;;;;;;;24.75;22.75;;;;;;;;4967491;28;45536;-81
2021/12/24 05:04:45;;;;;;;;;27.50;24.75;;;;;;;;4957738;28;45984;-81
2021/12/24 05:07:29;;;;;;;;;27.75;23.25;;;;;;;;4963111;28;45850;-82
2021/12/24 05:09:55;;;;;;;;;28.75;24.25;;;;;;;;4962531;28;45530;-81
2021/12/24 05:12:20;;;;;;;;;21.00;20.67;;;;;;;;4965142;28;45525;-82
2021/12/24 05:14:45;;;;;;;;;28.67;23.67;;;;;;;;4954639;28;46139;-82
2021/12/24 05:22:38;;;;;;;;;31.75;23.25;;;;;;;;4977767;28;45608;-81
2021/12/24 05:25:03;;;;;;;;;22.67;20.00;;;;;;;;4960402;28;46197;-81
2021/12/24 05:27:29;;;;;;;;;22.75;22.75;;;;;;;;4956748;28;45334;-81
2021/12/24 05:29:54;;;;;;;;;26.33;23.00;;;;;;;;4966065;28;45689;-82
2021/12/24 05:32:20;;;;;;;;;28.50;25.00;;;;;;;;4967907;28;45339;-81
2021/12/24 05:34:45;;;;;;;;;28.50;25.25;;;;;;;;4956634;28;45647;-82
2021/12/24 05:37:10;;;;;;;;;24.67;21.00;;;;;;;;4961347;28;45416;-82
2021/12/24 05:39:35;;;;;;;;;23.00;19.00;;;;;;;;4965096;28;45486;-81
2021/12/24 05:42:01;;;;;;;;;25.75;22.00;;;;;;;;4966245;28;45348;-82
2021/12/24 05:44:27;;;;;;;;;29.50;26.00;;;;;;;;4958300;28;47188;-82
2021/12/24 05:46:52;;;;;;;;;21.25;20.00;;;;;;;;4967488;28;45564;-82
2021/12/24 05:49:17;;;;;;;;;24.25;21.50;;;;;;;;4963639;28;45468;-81
2021/12/24 05:51:43;;;;;;;;;26.33;19.33;;;;;;;;4960394;28;45476;-82
2021/12/24 05:54:08;;;;;;;;;31.75;27.00;;;;;;;;4968660;28;47127;-81
2021/12/24 05:56:33;;;;;;;;;29.00;23.75;;;;;;;;4953633;28;45375;-81
2021/12/24 05:58:58;;;;;;;;;26.25;21.00;;;;;;;;4956829;28;45485;-81
2021/12/24 06:01:24;;;;;;;;;29.33;25.67;;;;;;;;4964136;28;45449;-81
2021/12/24 06:03:49;;;;;;;;;23.33;22.33;;;;;;;;4964648;28;45407;-81
2021/12/24 06:06:15;;;;;;;;;35.25;23.75;;;;;;;;4964257;28;45410;-81
2021/12/24 06:08:40;;;;;;;;;26.00;22.00;;;;;;;;4964205;28;45441;-81
2021/12/24 06:11:05;;;;;;;;;25.00;19.25;;;;;;;;4955530;28;45750;-81
2021/12/24 06:13:31;;;;;;;;;27.25;24.25;;;;;;;;4956971;28;46198;-81
2021/12/24 06:15:56;;;;;;;;;27.25;23.25;;;;;;;;4956179;28;45593;-81
2021/12/24 06:18:27;;;;;;;;;26.33;23.00;;;;;;;;4954733;28;45414;-81
2021/12/24 06:20:52;;;;;;;;;26.00;21.75;;;;;;;;4952472;28;45504;-81
2021/12/24 06:23:20;;;;;;;;;28.00;22.50;;;;;;;;4968039;28;46481;-81
2021/12/24 06:25:45;;;;;;;;;24.00;22.25;;;;;;;;4958407;28;45391;-81
2021/12/24 06:28:10;;;;;;;;;25.50;22.50;;;;;;;;4965956;28;45539;-81
2021/12/24 06:30:37;;;;;;;;;21.33;21.33;;;;;;;;4964289;28;45560;-81
2021/12/24 06:33:03;;;;;;;;;23.75;21.25;;;;;;;;4965102;28;46217;-81
2021/12/24 06:35:28;;;;;;;;;21.50;20.00;;;;;;;;4968094;28;45431;-81
2021/12/24 06:37:54;;;;;;;;;19.75;17.75;;;;;;;;4955933;28;45535;-80
2021/12/24 06:40:19;;;;;;;;;22.75;19.25;;;;;;;;4963159;28;45537;-81
2021/12/24 06:42:44;;;;;;;;;20.00;15.75;;;;;;;;4964824;28;45446;-81
2021/12/24 06:45:10;;;;;;;;;20.00;17.67;;;;;;;;4963559;28;45371;-81
2021/12/24 06:47:35;;;;;;;;;20.25;18.50;;;;;;;;4967788;28;45638;-81
2021/12/24 06:50:00;;;;;;;;;18.50;18.25;;;;;;;;4955852;28;45527;-81
2021/12/24 06:52:26;;;;;;;;;23.67;20.67;;;;;;;;4963642;28;45572;-82
2021/12/24 06:54:51;;;;;;;;;15.00;15.00;;;;;;;;4966162;28;45483;-80
2021/12/24 06:57:19;;;;;;;;;14.25;13.75;;;;;;;;4964582;28;45557;-80
2021/12/24 06:59:44;;;;;;;;;20.25;16.00;;;;;;;;4967592;28;45621;-81
2021/12/24 07:02:09;;;;;;;;;16.00;15.25;;;;;;;;4966669;28;45390;-81
2021/12/24 07:04:35;;;;;;;;;14.75;14.25;;;;;;;;4964967;28;45429;-81
2021/12/24 07:07:00;;;;;;;;;14.00;14.00;;;;;;;;4963422;28;45490;-80
2021/12/24 07:09:25;;;;;;;;;18.00;12.75;;;;;;;;4968863;28;45609;-80
2021/12/24 07:11:50;;;;;;;;;20.00;16.00;;;;;;;;4966847;28;45590;-80
2021/12/24 07:14:16;;;;;;;;;19.33;17.67;;;;;;;;4967301;28;45732;-81
2021/12/24 07:16:41;;;;;;;;;17.00;15.50;;;;;;;;4952495;28;45940;-80
2021/12/24 07:19:06;;;;;;;;;16.33;15.33;;;;;;;;4950772;28;45419;-80
2021/12/24 07:21:35;;;;;;;;;11.33;9.67;;;;;;;;4963298;28;46467;-80
2021/12/24 07:24:00;;;;;;;;;18.00;13.50;;;;;;;;4971251;28;45501;-80
2021/12/24 07:26:25;;;;;;;;;11.00;9.50;;;;;;;;4966577;28;45423;-81
2021/12/24 07:28:50;;;;;;;;;11.33;10.00;;;;;;;;4963900;28;45386;-80
2021/12/24 07:31:16;;;;;;;;;14.67;11.67;;;;;;;;4963130;28;47256;-80
2021/12/24 07:33:41;;;;;;;;;16.00;13.25;;;;;;;;4966726;28;45401;-80
2021/12/24 07:36:06;;;;;;;;;14.67;10.33;;;;;;;;4966826;28;45447;-82
2021/12/24 07:38:31;;;;;;;;;15.00;10.67;;;;;;;;4967708;28;45532;-80
2021/12/24 07:40:56;;;;;;;;;11.67;10.00;;;;;;;;4989261;28;46439;-82
2021/12/24 07:43:22;;;;;;;;;13.67;10.33;;;;;;;;4956513;28;45466;-82
2021/12/24 07:45:49;;;;;;;;;15.67;10.00;;;;;;;;4960535;28;45441;-82
2021/12/24 07:48:15;;;;;;;;;15.00;13.25;;;;;;;;4953977;28;45951;-80
2021/12/24 07:53:09;;;;;;;;;7.00;7.00;;;;;;;;4963930;28;46011;-82
2021/12/24 07:55:34;;;;;;;;;11.00;10.75;;;;;;;;4955990;28;45510;-80
2021/12/24 07:58:00;;;;;;;;;9.50;8.25;;;;;;;;4958320;28;45409;-80
2021/12/24 08:00:27;;;;;;;;;7.75;7.50;;;;;;;;4963532;28;46417;-83
2021/12/24 08:02:55;;;;;;;;;11.25;10.00;;;;;;;;4968418;28;45993;-82
2021/12/24 08:05:23;;;;;;;;;7.50;7.50;;;;;;;;4953780;28;49003;-82
2021/12/24 08:07:49;;;;;;;;;8.75;7.25;;;;;;;;4963958;28;45478;-82
2021/12/24 08:10:15;;;;;;;;;9.00;8.00;;;;;;;;4953234;28;47453;-82
2021/12/24 08:12:40;;;;;;;;;9.00;8.25;;;;;;;;4950147;28;45590;-80
2021/12/24 08:15:07;;;;;;;;;9.00;7.75;;;;;;;;4962965;28;45940;-82
2021/12/24 08:17:32;;;;;;;;;10.25;10.25;;;;;;;;4953203;28;45675;-81
2021/12/24 08:19:57;;;;;;;;;9.00;8.75;;;;;;;;4954249;28;46439;-80
2021/12/24 08:22:22;;;;;;;;;11.00;9.00;;;;;;;;4952464;28;45536;-81
2021/12/24 08:24:48;;;;;;;;;9.33;8.33;;;;;;;;4957526;28;45487;-81
2021/12/24 08:27:13;;;;;;;;;9.00;9.00;;;;;;;;4963441;28;45497;-83
2021/12/24 08:29:38;;;;;;;;;9.00;9.00;;;;;;;;4967636;28;45802;-80
2021/12/24 08:32:04;;;;;;;;;7.75;6.25;;;;;;;;4967730;28;46066;-82
2021/12/24 08:34:30;;;;;;;;;10.00;7.75;;;;;;;;4966029;28;45515;-81
2021/12/24 08:36:55;;;;;;;;;11.50;9.25;;;;;;;;4966644;28;45575;-80
2021/12/24 08:39:22;;;;;;;;;12.75;9.75;;;;;;;;4966317;28;46172;-81
2021/12/24 08:41:52;;;;;;;;;10.75;8.75;;;;;;;;4969416;28;45421;-81
2021/12/24 08:44:17;;;;;;;;;11.75;10.75;;;;;;;;4959236;28;45602;-81
2021/12/24 08:46:42;;;;;;;;;11.00;10.00;;;;;;;;4975228;28;45663;-81
2021/12/24 08:49:08;;;;;;;;;11.33;9.00;;;;;;;;4969082;28;45469;-83
2021/12/24 08:51:33;;;;;;;;;10.67;8.67;;;;;;;;4965801;28;45506;-82
2021/12/24 08:53:58;;;;;;;;;12.00;10.67;;;;;;;;4961400;28;45582;-83
2021/12/24 08:56:23;;;;;;;;;10.00;9.25;;;;;;;;4963853;28;45722;-84
2021/12/24 08:58:49;;;;;;;;;10.00;10.00;;;;;;;;4964033;28;45958;-82
2021/12/24 09:01:14;;;;;;;;;10.00;8.50;;;;;;;;4957456;28;45659;-80
2021/12/24 09:03:41;;;;;;;;;12.67;12.00;;;;;;;;4956556;28;45534;-82
2021/12/24 09:06:06;;;;;;;;;10.75;10.75;;;;;;;;4955500;28;45784;-80
2021/12/24 09:08:31;;;;;;;;;10.50;9.00;;;;;;;;4968108;28;46723;-82
2021/12/24 09:10:57;;;;;;;;;10.00;10.00;;;;;;;;4959756;28;45405;-82
2021/12/24 09:13:22;;;;;;;;;10.00;8.00;;;;;;;;4953191;28;45512;-80
2021/12/24 09:15:47;;;;;;;;;9.75;9.00;;;;;;;;4959175;28;45454;-82
2021/12/24 09:18:13;;;;;;;;;12.00;10.00;;;;;;;;4976061;28;46518;-81
2021/12/24 09:20:42;;;;;;;;;12.00;11.00;;;;;;;;4958014;28;45540;-67
2021/12/24 09:23:08;;;;;;;;;12.75;10.75;;;;;;;;4967275;28;45711;-67
2021/12/24 09:25:33;;;;;;;;;10.50;10.25;;;;;;;;4968475;28;46596;-67
2021/12/24 09:27:59;;;;;;;;;11.00;9.33;;;;;;;;4963642;28;47610;-67
2021/12/24 09:30:25;;;;;;;;;11.50;9.75;;;;;;;;4962152;28;45455;-66
2021/12/24 09:32:51;;;;;;;;;11.25;11.25;;;;;;;;4976624;28;45500;-81
2021/12/24 09:35:17;;;;;;;;;13.75;10.00;;;;;;;;4969269;28;45422;-81
2021/12/24 09:37:42;;;;;;;;;11.50;11.50;;;;;;;;4967270;28;46587;-81
2021/12/24 09:40:09;;;;;;;;;14.00;11.00;;;;;;;;4976323;28;45453;-84
2021/12/24 09:42:35;;;;;;;;;14.75;11.50;;;;;;;;4967933;27;45503;-82
2021/12/24 09:45:02;;;;;;;;;14.25;11.25;;;;;;;;4965850;28;45449;-80
2021/12/24 09:47:27;;;;;;;;;10.75;10.75;;;;;;;;4979412;28;46909;-79
2021/12/24 09:49:53;;;;;;;;;16.00;12.33;;;;;;;;4963626;28;45501;-79
2021/12/24 09:52:19;;;;;;;;;12.50;11.00;;;;;;;;4954388;28;45369;-81
2021/12/24 09:54:45;;;;;;;;;14.50;12.50;;;;;;;;4958973;28;45422;-81
2021/12/24 09:57:10;;;;;;;;;13.25;10.00;;;;;;;;4963963;28;46289;-81
2021/12/24 09:59:36;;;;;;;;;12.75;10.50;;;;;;;;4959340;28;45735;-81
2021/12/24 10:02:02;;;;;;;;;13.00;11.75;;;;;;;;4967581;28;45391;-81
2021/12/24 10:04:29;;;;;;;;;12.50;9.75;;;;;;;;4965601;28;45412;-81
2021/12/24 10:07:03;;;;;;;;;15.75;12.25;;;;;;;;4968107;28;45645;-81
2021/12/24 10:09:49;;;;;;;;;14.00;10.25;;;;;;;;4965745;28;46021;-81
2021/12/24 10:12:17;;;;;;;;;16.00;11.50;;;;;;;;4953679;28;45365;-81
2021/12/24 10:14:49;;;;;;;;;12.00;10.00;;;;;;;;4967888;28;45531;-81
2021/12/24 10:17:19;;;;;;;;;11.50;10.00;;;;;;;;4964266;28;45493;-81
2021/12/24 10:19:52;;;;;;;;;12.75;10.50;;;;;;;;4965618;28;45896;-81
2021/12/24 10:22:19;;;;;;;;;14.25;12.00;;;;;;;;4960913;28;45615;-81
2021/12/24 10:24:57;;;;;;;;;11.50;11.00;;;;;;;;4956353;28;45479;-79
2021/12/24 10:27:26;;;;;;;;;11.25;11.00;;;;;;;;4956943;28;45626;-79
2021/12/24 10:29:51;;;;;;;;;12.75;10.75;;;;;;;;4970968;28;45795;-80
2021/12/24 10:32:18;;;;;;;;;11.33;10.00;;;;;;;;4952693;28;45719;-79
2021/12/24 10:34:44;;;;;;;;;12.25;10.75;;;;;;;;4964776;28;45374;-81
2021/12/24 10:37:09;;;;;;;;;13.00;12.75;;;;;;;;4958275;28;46204;-81
2021/12/24 10:39:49;;;;;;;;;14.25;11.75;;;;;;;;4988108;28;45506;-80
2021/12/24 10:42:17;;;;;;;;;15.00;12.25;;;;;;;;4964746;28;45447;-81
2021/12/24 10:44:45;;;;;;;;;13.00;11.25;;;;;;;;4968395;28;45617;-81
2021/12/24 10:47:13;;;;;;;;;17.00;14.00;;;;;;;;4967576;28;46294;-80
2021/12/24 10:50:09;;;;;;;;;11.50;10.50;;;;;;;;4956806;28;45888;-80
2021/12/24 10:52:46;;;;;;;;;17.25;13.25;;;;;;;;4961703;28;45471;-79
2021/12/24 10:55:13;;;;;;;;;13.25;11.50;;;;;;;;4964834;28;45662;-81
2021/12/24 10:57:41;;;;;;;;;11.00;10.75;;;;;;;;4964403;28;45532;-80
2021/12/24 11:00:13;;;;;;;;;13.50;12.50;;;;;;;;4965816;28;45489;-80
2021/12/24 11:02:38;;;;;;;;;14.00;10.50;;;;;;;;4953588;28;45663;-80
2021/12/24 11:05:04;;;;;;;;;11.75;11.25;;;;;;;;4966517;28;45628;-79
2021/12/24 11:07:29;;;;;;;;;13.75;11.50;;;;;;;;4964611;28;45719;-79
2021/12/24 11:10:15;;;;;;;;;14.33;13.33;;;;;;;;4964386;28;45376;-79
2021/12/24 11:12:45;;;;;;;;;12.75;12.00;;;;;;;;4959428;28;45498;-79
2021/12/24 11:15:17;;;;;;;;;12.75;10.75;;;;;;;;4953221;28;45628;-79
2021/12/24 11:17:42;;;;;;;;;15.75;12.00;;;;;;;;4960434;28;45783;-80
2021/12/24 11:20:11;;;;;;;;;14.67;11.67;;;;;;;;4965535;28;45399;-79
2021/12/24 11:22:48;;;;;;;;;14.75;10.00;;;;;;;;4956518;28;45655;-81
2021/12/24 11:25:14;;;;;;;;;14.00;11.25;;;;;;;;4961924;28;45731;-81
2021/12/24 11:27:39;;;;;;;;;11.25;11.00;;;;;;;;4962900;28;46363;-80
2021/12/24 11:30:05;;;;;;;;;12.50;11.00;;;;;;;;4960067;28;45336;-81
2021/12/24 11:32:30;;;;;;;;;13.25;13.25;;;;;;;;4967767;28;45607;-79
2021/12/24 11:34:56;;;;;;;;;15.25;13.25;;;;;;;;4966179;28;45392;-81
2021/12/24 11:37:21;;;;;;;;;13.25;10.00;;;;;;;;4955953;28;48377;-81
2021/12/24 11:39:47;;;;;;;;;14.33;12.00;;;;;;;;4955507;28;45502;-82
2021/12/24 11:42:13;;;;;;;;;13.00;12.25;;;;;;;;4955475;28;45428;-81
2021/12/24 11:44:38;;;;;;;;;13.75;13.75;;;;;;;;4965687;28;45351;-81
2021/12/24 11:47:04;;;;;;;;;13.75;11.00;;;;;;;;4954864;28;46179;-80
2021/12/24 11:49:29;;;;;;;;;12.50;11.00;;;;;;;;4963389;28;45437;-80
2021/12/24 11:51:55;;;;;;;;;12.00;12.00;;;;;;;;4959476;28;45491;-80
2021/12/24 11:54:20;;;;;;;;;13.00;10.25;;;;;;;;4964511;28;45422;-82
2021/12/24 11:56:47;;;;;;;;;14.50;10.75;;;;;;;;4975471;28;45474;-80
2021/12/24 11:59:12;;;;;;;;;14.50;12.50;;;;;;;;4965244;28;45594;-81
2021/12/24 12:01:39;;;;;;;;;13.00;13.00;;;;;;;;4968238;28;45463;-79
2021/12/24 12:04:11;;;;;;;;;16.25;14.00;;;;;;;;4965174;28;45584;-81
2021/12/24 12:06:36;;;;;;;;;15.00;13.50;;;;;;;;4967486;28;46100;-82
2021/12/24 12:09:07;;;;;;;;;14.75;13.75;;;;;;;;4967014;28;45473;-82
2021/12/24 12:11:34;;;;;;;;;20.50;16.25;;;;;;;;4970497;28;45579;-82
2021/12/24 12:14:01;;;;;;;;;13.75;12.25;;;;;;;;4971351;28;45505;-81
2021/12/24 12:16:29;;;;;;;;;12.25;11.25;;;;;;;;4963716;28;46649;-82
2021/12/24 12:20:01;;;;;;;;;14.00;11.75;;;;;;;;4979892;28;45976;-81
2021/12/24 12:22:44;;;;;;;;;17.00;14.25;;;;;;;;4962130;28;45993;-81
2021/12/24 12:25:12;;;;;;;;;23.75;19.75;;;;;;;;4970938;28;45885;-82
2021/12/24 12:27:42;;;;;;;;;18.25;15.50;;;;;;;;4966329;28;46494;-81
2021/12/24 12:30:18;;;;;;;;;16.00;14.00;;;;;;;;4960545;28;45973;-81
2021/12/24 12:32:43;;;;;;;;;17.25;14.75;;;;;;;;4981270;27;45556;-81
2021/12/24 12:35:09;;;;;;;;;16.00;15.00;;;;;;;;4959119;28;45568;-82
2021/12/24 12:37:44;;;;;;;;;14.25;13.00;;;;;;;;4960663;28;45470;-82
2021/12/24 12:40:12;;;;;;;;;15.00;13.75;;;;;;;;4987939;27;46436;-81
2021/12/24 12:42:46;;;;;;;;;15.00;12.25;;;;;;;;4970037;28;45432;-82
2021/12/24 12:45:12;;;;;;;;;14.00;13.00;;;;;;;;4970127;28;45658;-82
2021/12/24 12:47:50;;;;;;;;;17.67;15.00;;;;;;;;4969157;28;46207;-80
2021/12/24 12:50:17;;;;;;;;;17.25;13.00;;;;;;;;4968671;28;45332;-79
2021/12/24 12:52:42;;;;;;;;;15.50;12.75;;;;;;;;4965134;28;45660;-80
2021/12/24 12:55:28;;;;;;;;;14.50;12.00;;;;;;;;4967050;28;48235;-80
2021/12/24 12:58:13;;;;;;;;;13.75;13.75;;;;;;;;4963847;28;46078;-83
2021/12/24 13:00:38;;;;;;;;;13.50;13.00;;;;;;;;4967488;28;45884;-83
2021/12/24 13:05:50;;;;;;;;;16.75;14.25;;;;;;;;4969466;28;45580;-82
2021/12/24 13:08:20;;;;;;;;;14.25;12.25;;;;;;;;4961866;28;45650;-83
2021/12/24 13:11:04;;;;;;;;;15.75;14.00;;;;;;;;4980128;28;45401;-82
2021/12/24 13:13:30;;;;;;;;;12.50;11.00;;;;;;;;4957601;28;45428;-82
2021/12/24 13:15:56;;;;;;;;;14.50;12.00;;;;;;;;4965326;28;45585;-82
2021/12/24 13:18:33;;;;;;;;;13.00;12.25;;;;;;;;4981531;28;46118;-80
2021/12/24 13:23:28;;;;;;;;;15.00;13.00;;;;;;;;4972649;28;45689;-82
2021/12/24 13:25:53;;;;;;;;;13.25;12.00;;;;;;;;4968793;28;45507;-81
2021/12/24 13:28:19;;;;;;;;;11.33;10.00;;;;;;;;4963859;28;46265;-81
2021/12/24 13:30:44;;;;;;;;;16.67;13.67;;;;;;;;4972618;28;45569;-81
2021/12/24 13:33:09;;;;;;;;;12.00;10.67;;;;;;;;4971920;28;45580;-82
2021/12/24 13:35:42;;;;;;;;;10.00;9.00;;;;;;;;4960785;28;45685;-82
2021/12/24 13:38:11;;;;;;;;;12.50;12.25;;;;;;;;4969308;28;45575;-81
2021/12/24 13:40:36;;;;;;;;;14.25;10.00;;;;;;;;4956027;28;45849;-80
2021/12/24 13:43:04;;;;;;;;;16.67;12.33;;;;;;;;4971992;28;45722;-81
2021/12/24 13:45:33;;;;;;;;;14.00;12.25;;;;;;;;4960497;28;45279;-81
2021/12/24 13:48:03;;;;;;;;;18.25;12.75;;;;;;;;4970352;28;46727;-81
2021/12/24 13:56:13;;;;;;;;;12.75;11.00;;;;;;;;4968158;28;45401;-81
2021/12/24 13:58:38;;;;;;;;;16.25;12.00;;;;;;;;4968338;28;45913;-81
2021/12/24 14:01:03;;;;;;;;;13.00;10.33;;;;;;;;4997638;28;45406;-81
2021/12/24 14:03:33;;;;;;;;;12.50;11.00;;;;;;;;4970646;28;45535;-81
2021/12/24 14:06:00;;;;;;;;;12.25;12.25;;;;;;;;4978017;28;45576;-81
2021/12/24 14:08:37;;;;;;;;;14.25;12.50;;;;;;;;4968318;28;45466;-80
2021/12/24 14:11:03;;;;;;;;;16.75;12.75;;;;;;;;4960182;28;45891;-80
2021/12/24 14:13:32;;;;;;;;;15.00;14.00;;;;;;;;4968981;28;45539;-81
2021/12/24 14:23:46;;;;;;;;;14.75;12.50;;;;;;;;4969105;28;45694;-80
2021/12/24 14:26:12;;;;;;;;;16.00;14.50;;;;;;;;4965891;28;45803;-81
2021/12/24 14:28:37;;;;;;;;;15.50;13.25;;;;;;;;4966177;28;45681;-80
2021/12/24 14:31:03;;;;;;;;;20.00;13.67;;;;;;;;4967882;28;45627;-79
2021/12/24 14:33:33;;;;;;;;;14.00;14.00;;;;;;;;4968943;28;48402;-80
2021/12/24 14:36:00;;;;;;;;;18.75;15.75;;;;;;;;4967328;28;45836;-80
2021/12/24 14:38:25;;;;;;;;;15.25;12.75;;;;;;;;4964204;28;45942;-80
2021/12/24 14:40:58;;;;;;;;;18.50;17.75;;;;;;;;4971117;28;45492;-80
2021/12/24 14:43:24;;;;;;;;;20.25;17.25;;;;;;;;4970840;28;45760;-80
2021/12/24 14:45:50;;;;;;;;;23.25;17.25;;;;;;;;4969100;28;45585;-81
2021/12/24 14:48:22;;;;;;;;;20.75;19.50;;;;;;;;4966142;28;46333;-80
2021/12/24 14:50:47;;;;;;;;;26.50;21.50;;;;;;;;4961432;28;45980;-80
2021/12/24 14:53:29;;;;;;;;;19.33;18.00;;;;;;;;4964748;28;45454;-80
2021/12/24 14:55:57;;;;;;;;;22.75;17.75;;;;;;;;4970824;28;45594;-80
2021/12/24 14:58:49;;;;;;;;;18.50;16.00;;;;;;;;4961326;28;47390;-80
2021/12/24 15:01:15;;;;;;;;;21.00;17.50;;;;;;;;4961425;28;45402;-81
2021/12/24 15:03:42;;;;;;;;;21.50;16.50;;;;;;;;4966446;28;45482;-79
2021/12/24 15:06:25;;;;;;;;;17.50;17.25;;;;;;;;4979581;28;45642;-79
2021/12/24 15:08:59;;;;;;;;;20.75;16.00;;;;;;;;4961838;28;45490;-81
2021/12/24 15:11:24;;;;;;;;;19.00;15.00;;;;;;;;4964127;28;46116;-81
2021/12/24 15:14:01;;;;;;;;;21.00;17.00;;;;;;;;4974131;28;45481;-81
2021/12/24 15:16:33;;;;;;;;;26.25;19.00;;;;;;;;4967929;28;45502;-81
2021/12/24 15:18:59;;;;;;;;;23.75;20.25;;;;;;;;4971478;28;45467;-81
2021/12/24 15:21:25;;;;;;;;;23.00;20.25;;;;;;;;4968219;28;47662;-81
2021/12/24 15:23:51;;;;;;;;;26.25;18.25;;;;;;;;4990554;28;45547;-81
2021/12/24 15:26:17;;;;;;;;;20.50;17.00;;;;;;;;4973438;28;45545;-80
2021/12/24 15:28:44;;;;;;;;;20.00;18.50;;;;;;;;4965273;28;46257;-79
2021/12/24 15:31:10;;;;;;;;;28.75;17.25;;;;;;;;4960465;28;45792;-81
2021/12/24 15:33:36;;;;;;;;;23.75;20.00;;;;;;;;4961264;28;45530;-78
2021/12/24 15:36:01;;;;;;;;;26.00;19.25;;;;;;;;4986731;28;45512;-82
2021/12/24 15:38:26;;;;;;;;;21.25;17.25;;;;;;;;4963929;28;45498;-81
2021/12/24 15:40:52;;;;;;;;;19.75;18.75;;;;;;;;4967884;28;45573;-82
2021/12/24 15:43:18;;;;;;;;;24.00;18.75;;;;;;;;4974655;28;45494;-82
2021/12/24 15:45:44;;;;;;;;;16.00;13.50;;;;;;;;4970790;28;45507;-80
2021/12/24 15:48:09;;;;;;;;;19.75;18.00;;;;;;;;4992701;28;48271;-80
2021/12/24 15:50:35;;;;;;;;;25.25;20.50;;;;;;;;4980309;27;45496;-81
2021/12/24 15:53:00;;;;;;;;;29.25;18.50;;;;;;;;4972517;28;45497;-81
2021/12/24 15:55:26;;;;;;;;;22.75;18.75;;;;;;;;4976374;28;45654;-81
2021/12/24 15:57:51;;;;;;;;;25.50;21.25;;;;;;;;4973531;28;46072;-81
2021/12/24 16:00:17;;;;;;;;;27.25;19.25;;;;;;;;4984060;28;45579;-81
2021/12/24 16:02:42;;;;;;;;;21.50;17.50;;;;;;;;4977743;28;45523;-80
2021/12/24 16:05:08;;;;;;;;;26.50;18.25;;;;;;;;4974513;28;45331;-81
2021/12/24 16:07:34;;;;;;;;;25.75;21.00;;;;;;;;4981329;28;45891;-82
2021/12/24 16:09:59;;;;;;;;;28.50;22.25;;;;;;;;4979488;28;45550;-82
2021/12/24 16:12:26;;;;;;;;;30.75;21.75;;;;;;;;4981784;28;45534;-82
2021/12/24 16:14:52;;;;;;;;;36.75;26.75;;;;;;;;4975503;28;45812;-82
2021/12/24 16:17:17;;;;;;;;;17.75;17.25;;;;;;;;4965569;28;45861;-82
2021/12/24 16:19:43;;;;;;;;;29.00;24.00;;;;;;;;4976449;28;45635;-82
2021/12/24 16:22:08;;;;;;;;;24.50;21.75;;;;;;;;4972328;28;45607;-82